sensor_id;sensor_type;location;lat;lon;timestamp;temperature;humidity
32147;DHT22;32190;49.112;8.598;2023-05-10T00:01:58;20.70;60.10
32147;DHT22;32190;49.112;8.598;2023-05-10T00:07:49;20.70;60.20
32147;DHT22;32190;49.112;8.598;2023-05-10T00:13:40;20.70;60.10
32147;DHT22;32190;49.112;8.598;2023-05-10T00:19:30;20.60;60.00
32147;DHT22;32190;49.112;8.598;2023-05-10T00:25:21;20.60;59.90
32147;DHT22;32190;49.112;8.598;2023-05-10T00:31:14;20.50;59.90
32147;DHT22;32190;49.112;8.598;2023-05-10T00:37:05;20.50;59.90
32147;DHT22;32190;49.112;8.598;2023-05-10T00:42:56;20.40;59.80
32147;DHT22;32190;49.112;8.598;2023-05-10T00:48:47;20.30;59.80
32147;DHT22;32190;49.112;8.598;2023-05-10T00:54:37;20.20;59.90
32147;DHT22;32190;49.112;8.598;2023-05-10T01:00:28;20.20;60.00
32147;DHT22;32190;49.112;8.598;2023-05-10T01:06:19;20.20;60.10
32147;DHT22;32190;49.112;8.598;2023-05-10T01:12:10;20.10;60.10
32147;DHT22;32190;49.112;8.598;2023-05-10T01:18:01;20.10;60.00
32147;DHT22;32190;49.112;8.598;2023-05-10T01:24:29;20.00;60.10
32147;DHT22;32190;49.112;8.598;2023-05-10T01:36:58;19.80;60.30
32147;DHT22;32190;49.112;8.598;2023-05-10T01:42:55;19.80;60.40
32147;DHT22;32190;49.112;8.598;2023-05-10T01:48:48;19.80;60.30
32147;DHT22;32190;49.112;8.598;2023-05-10T01:54:47;19.80;60.30
32147;DHT22;32190;49.112;8.598;2023-05-10T02:00:42;19.80;60.40
32147;DHT22;32190;49.112;8.598;2023-05-10T02:06:34;19.80;60.10
32147;DHT22;32190;49.112;8.598;2023-05-10T02:12:26;19.80;60.10
32147;DHT22;32190;49.112;8.598;2023-05-10T02:18:18;19.70;60.30
32147;DHT22;32190;49.112;8.598;2023-05-10T02:24:10;19.70;60.40
32147;DHT22;32190;49.112;8.598;2023-05-10T02:30:01;19.60;60.50
32147;DHT22;32190;49.112;8.598;2023-05-10T02:35:52;19.60;60.50
32147;DHT22;32190;49.112;8.598;2023-05-10T02:41:45;19.60;60.60
32147;DHT22;32190;49.112;8.598;2023-05-10T02:47:36;19.50;60.70
32147;DHT22;32190;49.112;8.598;2023-05-10T02:53:31;19.50;60.60
32147;DHT22;32190;49.112;8.598;2023-05-10T02:59:23;19.50;60.90
32147;DHT22;32190;49.112;8.598;2023-05-10T03:05:14;19.50;60.70
32147;DHT22;32190;49.112;8.598;2023-05-10T03:11:22;19.40;60.70
32147;DHT22;32190;49.112;8.598;2023-05-10T03:17:30;19.40;60.80
32147;DHT22;32190;49.112;8.598;2023-05-10T03:23:27;19.40;61.10
32147;DHT22;32190;49.112;8.598;2023-05-10T03:29:20;19.40;61.00
32147;DHT22;32190;49.112;8.598;2023-05-10T03:35:12;19.30;61.00
32147;DHT22;32190;49.112;8.598;2023-05-10T03:41:06;19.30;61.10
32147;DHT22;32190;49.112;8.598;2023-05-10T03:46:56;19.30;61.10
32147;DHT22;32190;49.112;8.598;2023-05-10T03:52:47;19.30;61.20
32147;DHT22;32190;49.112;8.598;2023-05-10T03:58:38;19.30;61.20
32147;DHT22;32190;49.112;8.598;2023-05-10T04:04:28;19.30;61.00
32147;DHT22;32190;49.112;8.598;2023-05-10T04:10:19;19.20;61.00
32147;DHT22;32190;49.112;8.598;2023-05-10T04:16:12;19.20;60.90
32147;DHT22;32190;49.112;8.598;2023-05-10T04:22:03;19.20;60.90
32147;DHT22;32190;49.112;8.598;2023-05-10T04:27:53;19.20;60.90
32147;DHT22;32190;49.112;8.598;2023-05-10T04:33:44;19.20;60.90
32147;DHT22;32190;49.112;8.598;2023-05-10T04:39:34;19.20;61.00
32147;DHT22;32190;49.112;8.598;2023-05-10T04:45:25;19.20;61.00
32147;DHT22;32190;49.112;8.598;2023-05-10T04:51:16;19.20;61.10
32147;DHT22;32190;49.112;8.598;2023-05-10T04:57:06;19.10;61.10
32147;DHT22;32190;49.112;8.598;2023-05-10T05:02:57;19.10;61.10
32147;DHT22;32190;49.112;8.598;2023-05-10T05:08:47;19.00;61.20
32147;DHT22;32190;49.112;8.598;2023-05-10T05:14:40;19.00;61.40
32147;DHT22;32190;49.112;8.598;2023-05-10T05:20:34;19.00;61.50
32147;DHT22;32190;49.112;8.598;2023-05-10T05:26:26;19.00;61.50
32147;DHT22;32190;49.112;8.598;2023-05-10T05:32:17;18.90;61.70
32147;DHT22;32190;49.112;8.598;2023-05-10T05:38:07;19.00;61.70
32147;DHT22;32190;49.112;8.598;2023-05-10T05:43:58;19.00;61.60
32147;DHT22;32190;49.112;8.598;2023-05-10T05:49:48;19.00;61.50
32147;DHT22;32190;49.112;8.598;2023-05-10T05:55:39;19.10;61.70
32147;DHT22;32190;49.112;8.598;2023-05-10T06:01:29;19.10;61.50
32147;DHT22;32190;49.112;8.598;2023-05-10T06:07:20;19.10;61.70
32147;DHT22;32190;49.112;8.598;2023-05-10T06:13:11;19.10;61.70
32147;DHT22;32190;49.112;8.598;2023-05-10T06:19:02;19.10;61.90
32147;DHT22;32190;49.112;8.598;2023-05-10T06:24:53;19.10;62.10
32147;DHT22;32190;49.112;8.598;2023-05-10T06:30:43;19.00;62.10
32147;DHT22;32190;49.112;8.598;2023-05-10T06:36:34;19.00;62.10
32147;DHT22;32190;49.112;8.598;2023-05-10T06:42:25;19.10;62.00
32147;DHT22;32190;49.112;8.598;2023-05-10T06:48:15;19.10;62.00
32147;DHT22;32190;49.112;8.598;2023-05-10T06:54:06;19.20;62.00
32147;DHT22;32190;49.112;8.598;2023-05-10T06:59:58;19.20;61.90
32147;DHT22;32190;49.112;8.598;2023-05-10T07:05:49;19.20;61.80
32147;DHT22;32190;49.112;8.598;2023-05-10T07:11:39;19.30;61.70
32147;DHT22;32190;49.112;8.598;2023-05-10T07:17:30;19.30;61.70
32147;DHT22;32190;49.112;8.598;2023-05-10T07:23:20;19.40;61.70
32147;DHT22;32190;49.112;8.598;2023-05-10T07:29:11;19.40;61.70
32147;DHT22;32190;49.112;8.598;2023-05-10T07:35:02;19.50;61.50
32147;DHT22;32190;49.112;8.598;2023-05-10T07:40:53;19.50;61.30
32147;DHT22;32190;49.112;8.598;2023-05-10T07:46:44;19.50;61.20
32147;DHT22;32190;49.112;8.598;2023-05-10T07:52:34;19.60;61.40
32147;DHT22;32190;49.112;8.598;2023-05-10T07:58:25;19.60;61.30
32147;DHT22;32190;49.112;8.598;2023-05-10T08:04:16;19.70;61.00
32147;DHT22;32190;49.112;8.598;2023-05-10T08:10:07;19.70;61.00
32147;DHT22;32190;49.112;8.598;2023-05-10T08:15:58;19.70;61.00
32147;DHT22;32190;49.112;8.598;2023-05-10T08:21:48;19.70;60.90
32147;DHT22;32190;49.112;8.598;2023-05-10T08:27:39;19.80;60.90
32147;DHT22;32190;49.112;8.598;2023-05-10T08:33:29;19.80;61.10
32147;DHT22;32190;49.112;8.598;2023-05-10T08:39:20;19.90;60.80
32147;DHT22;32190;49.112;8.598;2023-05-10T08:45:11;20.00;60.50
32147;DHT22;32190;49.112;8.598;2023-05-10T08:51:03;20.00;60.20
32147;DHT22;32190;49.112;8.598;2023-05-10T08:56:53;20.00;60.00
32147;DHT22;32190;49.112;8.598;2023-05-10T09:02:44;20.00;59.70
32147;DHT22;32190;49.112;8.598;2023-05-10T09:08:36;19.90;59.80
32147;DHT22;32190;49.112;8.598;2023-05-10T09:14:27;19.80;60.00
32147;DHT22;32190;49.112;8.598;2023-05-10T09:20:19;19.90;60.00
32147;DHT22;32190;49.112;8.598;2023-05-10T09:26:10;19.90;60.00
32147;DHT22;32190;49.112;8.598;2023-05-10T09:32:01;19.90;59.90
32147;DHT22;32190;49.112;8.598;2023-05-10T09:37:53;20.00;60.00
32147;DHT22;32190;49.112;8.598;2023-05-10T09:43:45;20.10;59.90
32147;DHT22;32190;49.112;8.598;2023-05-10T09:49:35;20.20;59.70
32147;DHT22;32190;49.112;8.598;2023-05-10T09:55:41;20.30;59.30
32147;DHT22;32190;49.112;8.598;2023-05-10T10:01:32;20.30;59.30
32147;DHT22;32190;49.112;8.598;2023-05-10T10:07:24;20.50;59.20
32147;DHT22;32190;49.112;8.598;2023-05-10T10:13:17;20.60;58.90
32147;DHT22;32190;49.112;8.598;2023-05-10T10:19:08;20.50;58.70
32147;DHT22;32190;49.112;8.598;2023-05-10T10:24:59;20.40;58.70
32147;DHT22;32190;49.112;8.598;2023-05-10T10:30:51;20.30;58.90
32147;DHT22;32190;49.112;8.598;2023-05-10T10:36:45;20.30;59.20
32147;DHT22;32190;49.112;8.598;2023-05-10T10:42:46;20.30;59.70
32147;DHT22;32190;49.112;8.598;2023-05-10T10:48:37;20.30;60.00
32147;DHT22;32190;49.112;8.598;2023-05-10T10:54:28;20.40;60.00
32147;DHT22;32190;49.112;8.598;2023-05-10T11:00:35;20.50;59.90
32147;DHT22;32190;49.112;8.598;2023-05-10T11:06:30;20.60;60.00
32147;DHT22;32190;49.112;8.598;2023-05-10T11:12:23;20.70;59.10
32147;DHT22;32190;49.112;8.598;2023-05-10T11:18:28;20.80;58.90
32147;DHT22;32190;49.112;8.598;2023-05-10T11:24:21;20.70;58.70
32147;DHT22;32190;49.112;8.598;2023-05-10T11:30:12;20.70;58.20
32147;DHT22;32190;49.112;8.598;2023-05-10T11:36:04;20.60;58.50
32147;DHT22;32190;49.112;8.598;2023-05-10T11:41:55;20.50;58.50
32147;DHT22;32190;49.112;8.598;2023-05-10T11:47:48;20.50;58.30
32147;DHT22;32190;49.112;8.598;2023-05-10T11:53:39;20.50;58.40
32147;DHT22;32190;49.112;8.598;2023-05-10T11:59:30;20.50;58.50
32147;DHT22;32190;49.112;8.598;2023-05-10T12:05:20;20.50;58.30
32147;DHT22;32190;49.112;8.598;2023-05-10T12:11:12;20.50;58.10
32147;DHT22;32190;49.112;8.598;2023-05-10T12:17:03;20.60;57.70
32147;DHT22;32190;49.112;8.598;2023-05-10T12:22:56;20.70;57.90
32147;DHT22;32190;49.112;8.598;2023-05-10T12:28:48;20.80;56.90
32147;DHT22;32190;49.112;8.598;2023-05-10T12:34:39;20.90;56.50
32147;DHT22;32190;49.112;8.598;2023-05-10T12:40:29;21.00;56.40
32147;DHT22;32190;49.112;8.598;2023-05-10T12:46:20;21.10;56.60
32147;DHT22;32190;49.112;8.598;2023-05-10T12:52:11;21.20;56.30
32147;DHT22;32190;49.112;8.598;2023-05-10T12:58:01;21.20;56.10
32147;DHT22;32190;49.112;8.598;2023-05-10T13:03:52;21.20;54.90
32147;DHT22;32190;49.112;8.598;2023-05-10T13:09:42;21.20;54.90
32147;DHT22;32190;49.112;8.598;2023-05-10T13:15:33;21.30;54.90
32147;DHT22;32190;49.112;8.598;2023-05-10T13:21:24;21.30;54.80
32147;DHT22;32190;49.112;8.598;2023-05-10T13:27:15;21.40;54.30
32147;DHT22;32190;49.112;8.598;2023-05-10T13:33:06;21.50;54.30
32147;DHT22;32190;49.112;8.598;2023-05-10T13:38:56;21.60;53.10
32147;DHT22;32190;49.112;8.598;2023-05-10T13:44:47;21.60;53.30
32147;DHT22;32190;49.112;8.598;2023-05-10T13:50:37;21.70;52.60
32147;DHT22;32190;49.112;8.598;2023-05-10T13:56:28;21.80;52.90
32147;DHT22;32190;49.112;8.598;2023-05-10T14:02:19;21.90;52.30
32147;DHT22;32190;49.112;8.598;2023-05-10T14:08:10;22.00;52.30
32147;DHT22;32190;49.112;8.598;2023-05-10T14:14:01;22.10;51.70
32147;DHT22;32190;49.112;8.598;2023-05-10T14:19:52;22.10;51.50
32147;DHT22;32190;49.112;8.598;2023-05-10T14:25:43;22.10;51.10
32147;DHT22;32190;49.112;8.598;2023-05-10T14:31:34;22.10;51.40
32147;DHT22;32190;49.112;8.598;2023-05-10T14:37:24;22.20;51.20
32147;DHT22;32190;49.112;8.598;2023-05-10T14:43:16;22.30;51.70
32147;DHT22;32190;49.112;8.598;2023-05-10T14:49:07;22.40;51.20
32147;DHT22;32190;49.112;8.598;2023-05-10T14:54:57;22.50;50.30
32147;DHT22;32190;49.112;8.598;2023-05-10T15:00:49;22.50;50.60
32147;DHT22;32190;49.112;8.598;2023-05-10T15:06:39;22.60;49.30
32147;DHT22;32190;49.112;8.598;2023-05-10T15:12:31;22.60;49.50
32147;DHT22;32190;49.112;8.598;2023-05-10T15:18:21;22.60;49.70
32147;DHT22;32190;49.112;8.598;2023-05-10T15:24:12;22.70;50.00
32147;DHT22;32190;49.112;8.598;2023-05-10T15:30:03;23.00;49.70
32147;DHT22;32190;49.112;8.598;2023-05-10T15:35:54;23.20;49.40
32147;DHT22;32190;49.112;8.598;2023-05-10T15:41:45;23.30;49.20
32147;DHT22;32190;49.112;8.598;2023-05-10T15:47:35;23.40;49.40
32147;DHT22;32190;49.112;8.598;2023-05-10T15:53:26;23.50;49.30
32147;DHT22;32190;49.112;8.598;2023-05-10T15:59:17;23.50;49.20
32147;DHT22;32190;49.112;8.598;2023-05-10T16:05:08;23.60;49.00
32147;DHT22;32190;49.112;8.598;2023-05-10T16:10:59;23.60;48.80
32147;DHT22;32190;49.112;8.598;2023-05-10T16:16:50;23.70;48.90
32147;DHT22;32190;49.112;8.598;2023-05-10T16:22:41;23.70;48.60
32147;DHT22;32190;49.112;8.598;2023-05-10T16:28:33;23.70;48.50
32147;DHT22;32190;49.112;8.598;2023-05-10T16:34:24;23.70;48.40
32147;DHT22;32190;49.112;8.598;2023-05-10T16:40:15;23.70;48.60
32147;DHT22;32190;49.112;8.598;2023-05-10T16:46:09;23.70;47.70
32147;DHT22;32190;49.112;8.598;2023-05-10T16:52:00;23.60;47.30
32147;DHT22;32190;49.112;8.598;2023-05-10T16:57:51;23.60;48.10
32147;DHT22;32190;49.112;8.598;2023-05-10T17:03:41;23.60;47.70
32147;DHT22;32190;49.112;8.598;2023-05-10T17:09:32;23.50;47.90
32147;DHT22;32190;49.112;8.598;2023-05-10T17:15:22;23.40;48.10
32147;DHT22;32190;49.112;8.598;2023-05-10T17:21:13;23.40;48.10
32147;DHT22;32190;49.112;8.598;2023-05-10T17:27:03;23.30;48.00
32147;DHT22;32190;49.112;8.598;2023-05-10T17:32:54;23.20;48.30
32147;DHT22;32190;49.112;8.598;2023-05-10T17:38:45;23.10;48.50
32147;DHT22;32190;49.112;8.598;2023-05-10T17:44:36;23.00;48.50
32147;DHT22;32190;49.112;8.598;2023-05-10T17:50:34;23.00;48.30
32147;DHT22;32190;49.112;8.598;2023-05-10T17:56:24;23.00;48.20
32147;DHT22;32190;49.112;8.598;2023-05-10T18:02:15;22.80;48.00
32147;DHT22;32190;49.112;8.598;2023-05-10T18:08:06;22.70;48.20
32147;DHT22;32190;49.112;8.598;2023-05-10T18:13:57;22.70;48.40
32147;DHT22;32190;49.112;8.598;2023-05-10T18:19:48;22.60;48.50
32147;DHT22;32190;49.112;8.598;2023-05-10T18:25:38;22.50;48.40
32147;DHT22;32190;49.112;8.598;2023-05-10T18:31:29;22.40;48.70
32147;DHT22;32190;49.112;8.598;2023-05-10T18:37:19;22.30;48.60
32147;DHT22;32190;49.112;8.598;2023-05-10T18:43:10;22.20;48.80
32147;DHT22;32190;49.112;8.598;2023-05-10T18:49:01;22.20;48.90
32147;DHT22;32190;49.112;8.598;2023-05-10T18:54:52;22.10;49.20
32147;DHT22;32190;49.112;8.598;2023-05-10T19:00:42;22.00;49.30
32147;DHT22;32190;49.112;8.598;2023-05-10T19:06:33;21.90;49.50
32147;DHT22;32190;49.112;8.598;2023-05-10T19:12:24;21.90;49.50
32147;DHT22;32190;49.112;8.598;2023-05-10T19:18:14;21.80;49.60
32147;DHT22;32190;49.112;8.598;2023-05-10T19:24:05;21.70;49.60
32147;DHT22;32190;49.112;8.598;2023-05-10T19:29:56;21.70;49.80
32147;DHT22;32190;49.112;8.598;2023-05-10T19:35:49;21.60;49.60
32147;DHT22;32190;49.112;8.598;2023-05-10T19:41:41;21.60;50.30
32147;DHT22;32190;49.112;8.598;2023-05-10T19:47:32;21.50;49.80
32147;DHT22;32190;49.112;8.598;2023-05-10T19:53:23;21.50;50.00
32147;DHT22;32190;49.112;8.598;2023-05-10T19:59:14;21.40;49.90
32147;DHT22;32190;49.112;8.598;2023-05-10T20:05:05;21.30;49.90
32147;DHT22;32190;49.112;8.598;2023-05-10T20:10:56;21.30;49.90
32147;DHT22;32190;49.112;8.598;2023-05-10T20:16:51;21.20;50.10
32147;DHT22;32190;49.112;8.598;2023-05-10T20:22:43;21.20;50.20
32147;DHT22;32190;49.112;8.598;2023-05-10T20:28:33;21.10;50.20
32147;DHT22;32190;49.112;8.598;2023-05-10T20:34:24;21.00;50.20
32147;DHT22;32190;49.112;8.598;2023-05-10T20:40:15;21.00;50.20
32147;DHT22;32190;49.112;8.598;2023-05-10T20:46:05;20.90;50.40
32147;DHT22;32190;49.112;8.598;2023-05-10T20:51:57;20.90;50.50
32147;DHT22;32190;49.112;8.598;2023-05-10T20:57:48;20.80;50.30
32147;DHT22;32190;49.112;8.598;2023-05-10T21:03:38;20.80;50.30
32147;DHT22;32190;49.112;8.598;2023-05-10T21:09:29;20.70;50.30
32147;DHT22;32190;49.112;8.598;2023-05-10T21:15:19;20.60;50.60
32147;DHT22;32190;49.112;8.598;2023-05-10T21:21:11;20.50;50.50
32147;DHT22;32190;49.112;8.598;2023-05-10T21:27:02;20.50;50.70
32147;DHT22;32190;49.112;8.598;2023-05-10T21:32:53;20.40;50.80
32147;DHT22;32190;49.112;8.598;2023-05-10T21:38:48;20.30;50.90
32147;DHT22;32190;49.112;8.598;2023-05-10T21:44:39;20.40;50.90
32147;DHT22;32190;49.112;8.598;2023-05-10T21:50:30;20.30;51.00
32147;DHT22;32190;49.112;8.598;2023-05-10T21:56:21;20.20;50.90
32147;DHT22;32190;49.112;8.598;2023-05-10T22:02:11;20.10;51.00
32147;DHT22;32190;49.112;8.598;2023-05-10T22:08:02;20.10;51.10
32147;DHT22;32190;49.112;8.598;2023-05-10T22:13:52;20.00;51.10
32147;DHT22;32190;49.112;8.598;2023-05-10T22:19:43;20.00;51.20
32147;DHT22;32190;49.112;8.598;2023-05-10T22:25:34;19.90;51.30
32147;DHT22;32190;49.112;8.598;2023-05-10T22:31:25;19.90;51.30
32147;DHT22;32190;49.112;8.598;2023-05-10T22:37:15;19.80;51.20
32147;DHT22;32190;49.112;8.598;2023-05-10T22:43:07;19.80;51.40
32147;DHT22;32190;49.112;8.598;2023-05-10T22:48:58;19.70;51.50
32147;DHT22;32190;49.112;8.598;2023-05-10T22:54:48;19.70;51.60
32147;DHT22;32190;49.112;8.598;2023-05-10T23:00:39;19.60;51.60
32147;DHT22;32190;49.112;8.598;2023-05-10T23:06:30;19.50;51.70
32147;DHT22;32190;49.112;8.598;2023-05-10T23:12:20;19.50;51.80
32147;DHT22;32190;49.112;8.598;2023-05-10T23:18:11;19.40;51.80
32147;DHT22;32190;49.112;8.598;2023-05-10T23:24:02;19.40;51.90
32147;DHT22;32190;49.112;8.598;2023-05-10T23:29:53;19.40;52.00
32147;DHT22;32190;49.112;8.598;2023-05-10T23:35:45;19.40;52.10
32147;DHT22;32190;49.112;8.598;2023-05-10T23:41:35;19.30;52.00
32147;DHT22;32190;49.112;8.598;2023-05-10T23:47:26;19.30;52.10
32147;DHT22;32190;49.112;8.598;2023-05-10T23:53:17;19.20;52.10
32147;DHT22;32190;49.112;8.598;2023-05-10T23:59:08;19.20;52.30
